Maria S. Merian — DBBT — position and weather

sailwx.info

Track history (hours):
 
Tides and Currents Weather Stations Pressure Air Temp Water Temp Dewpoint Dewpoint Depression Visibility Wind Speed Wind Dir Waves Ship Positions

Oceanographic research ship Maria S. Merian (Germany)

Last reported at 2017-Mar-26 06:24 UTC. Time now 2017-Mar-26 07:14 UTC.
Position N 56°25' E 011°15'.

Length 94.8 m; beam 19.2 m; draft 6.5 m.

Type: Other ship. MMSI: 211753000.

Date/timePositionNaut miles runAvg speedWind from/ knotsBaromVisibWave heightAir tempDewpointWater temp
2017-Mar-26 06:24N 56°25' E 011°15'1 1.4
2017-Mar-26 05:31N 56°25' E 011°17'1 1.6
2017-Mar-26 05:00N 56°24' E 011°18'3 7.2 270 / 41026.9 3.4 3.3 5.0
2017-Mar-26 04:32N 56°21' E 011°15'610.7
2017-Mar-26 04:00N 56°18' E 011°06'3 6.3 320 / 61027.0 3.8 3.7 5.1
2017-Mar-26 03:33N 56°21' E 011°06'4 1.7
2017-Mar-26 01:23N 56°23' E 011°12'2 2.0
2017-Mar-26 00:33N 56°23' E 011°15'2 3.6
2017-Mar-26 00:00N 56°24' E 011°12'7 6.6 320 / 121027.2 5.8 5.8 4.6
2017-Mar-25 23:00N 56°24' E 011°24'2 3.3 320 / 161026.7 4.5 4.4 4.5
2017-Mar-25 22:31N 56°23' E 011°23'815.0
2017-Mar-25 22:00N 56°30' E 011°18'4 8.7 320 / 141026.8 4.7 4.7 4.6
2017-Mar-25 21:32N 56°26' E 011°19'3 6.3
2017-Mar-25 21:00N 56°24' E 011°24'3 5.6 300 / 161026.5 4.6 4.6 4.7
2017-Mar-25 20:25N 56°27' E 011°21'3 7.9
2017-Mar-25 20:00N 56°24' E 011°24'3 3.3 310 / 171026.6 5.5 4.9 4.6
2017-Mar-25 19:06N 56°27' E 011°26'331.2
2017-Mar-25 19:00N 56°30' E 011°24'6 3.8 300 / 141026.3 6.0 3.7 4.7
2017-Mar-25 17:33N 56°26' E 011°32'3 6.2
2017-Mar-25 17:00N 56°24' E 011°36'0 0.0 310 / 101026.0 6.1 3.8 4.5
2017-Mar-25 16:00N 56°24' E 011°36'0 0.0 320 / 161026.2 6.5 3.3 4.5
2017-Mar-25 15:00N 56°24' E 011°36'7 6.9 330 / 121026.4 6.9 2.7 4.5
2017-Mar-25 14:00N 56°18' E 011°30'3 3.3 310 / 121026.9 6.2 3.6 4.5
2017-Mar-25 13:00N 56°18' E 011°24'7 6.7 320 / 161027.6 7.8 3.8 4.3
2017-Mar-25 12:00N 56°18' E 011°12'2 3.1 320 / 171027.7 6.7 3.1 4.8
2017-Mar-25 11:29N 56°19' E 011°11'3 6.3
2017-Mar-25 11:00N 56°18' E 011°06'0 0.0 320 / 171027.9 7.5 3.3 5.3
2017-Mar-25 10:00N 56°18' E 011°06'0 0.0 320 / 191028.6 7.0 2.9 5.3
2017-Mar-25 09:00N 56°18' E 011°06'3 3.3 310 / 211028.7 7.9 3.8 4.9
2017-Mar-25 08:00N 56°18' E 011°12'0 0.0 300 / 211028.2 6.2 4.3 5.0
2017-Mar-25 07:00N 56°18' E 011°12'3 6.0 300 / 211028.1 6.2 4.5 4.9
2017-Mar-25 06:33N 56°17' E 011°08'3 4.6
2017-Mar-25 06:00N 56°18' E 011°12'3 3.3 290 / 211027.6 5.8 4.4 4.9
2017-Mar-25 05:00N 56°18' E 011°06'1 2.1 290 / 211028.2 6.1 4.9 4.7
2017-Mar-25 04:21N 56°19' E 011°07'3 8.1
2017-Mar-25 04:00N 56°18' E 011°12'5 5.1 290 / 171028.9 5.6 4.4 5.2
2017-Mar-25 03:03N 56°18' E 011°03'224.6
2017-Mar-25 03:00N 56°18' E 011°06'1 0.5 290 / 271028.4 5.0 3.6 4.9
2017-Mar-25 01:21N 56°17' E 011°06'1 2.3
2017-Mar-25 01:00N 56°18' E 011°06'3 4.1 280 / 231030.4 5.3 3.1 5.2
2017-Mar-25 00:18N 56°17' E 011°01'3 9.2
2017-Mar-25 00:00N 56°18' E 011°06'3 3.3 270 / 211030.9 4.7 2.9 5.1
2017-Mar-24 23:00N 56°18' E 011°00'4 8.3 270 / 161031.7 4.8 2.2 4.9
2017-Mar-24 22:31N 56°14' E 010°58'5 9.2
2017-Mar-24 22:00N 56°12' E 011°06'1 3.1 280 / 171031.7 4.7 2.7 5.1
2017-Mar-24 21:33N 56°13' E 011°08'5 8.1
2017-Mar-24 21:00N 56°12' E 011°00'2 4.2 290 / 171032.8 5.2 2.3 5.0
2017-Mar-24 20:33N 56°12' E 010°57'5 9.1
2017-Mar-24 20:00N 56°12' E 011°06'3 3.3 290 / 171032.1 5.7 1.5 5.1
2017-Mar-24 19:00N 56°12' E 011°00'3 6.6 300 / 171032.0 6.5-0.1 5.0
2017-Mar-24 18:30N 56°10' E 010°56'5 3.0
2017-Mar-24 17:00N 56°06' E 011°00'4 5.3 280 / 101032.0 7.7 2.3 5.3
2017-Mar-24 16:16N 56°07' E 010°54'413.8
2017-Mar-24 16:00N 56°06' E 011°00'0 0.0 230 / 161031.8 6.6 2.7 5.4
2017-Mar-24 15:00N 56°06' E 011°00'2 3.0 230 / 121032.3 6.2 3.4 5.5
2017-Mar-24 14:28N 56°06' E 010°57'2 3.3
2017-Mar-24 14:00N 56°06' E 011°00'1 0.9 230 / 121032.2 5.6 3.1 5.2
2017-Mar-24 13:13N 56°06' E 011°01'417.5
2017-Mar-24 13:00N 56°06' E 010°54'2 5.0 250 / 121032.6 5.9 1.2 5.1
2017-Mar-24 12:33N 56°04' E 010°55'4 7.0
2017-Mar-24 12:00N 56°00' E 010°54'3 3.4 260 / 101032.6 5.0 1.4 5.1
2017-Mar-24 11:00N 56°00' E 011°00'3 3.4 250 / 101032.3 6.0 2.4 4.9
2017-Mar-24 10:00N 56°00' E 010°54'0 0.0 270 / 81032.6 4.8 1.9 4.8
2017-Mar-24 09:00N 56°00' E 010°54'1 0.9 280 / 101032.4 6.5 2.1 5.0
2017-Mar-24 08:03N 55°59' E 010°53'112.3
2017-Mar-24 08:00N 56°00' E 010°54'1 2.6 270 / 81032.0 6.6 1.0 4.8
2017-Mar-24 07:33N 55°59' E 010°53'3 5.0
2017-Mar-24 07:00N 56°00' E 010°48'1 1.6 280 / 61031.9 3.6-0.0 4.7
2017-Mar-24 06:32N 55°60' E 010°49'611.1
2017-Mar-24 06:00N 56°00' E 011°00'2 3.2 300 / 81031.4 3.2-1.1 4.7
2017-Mar-24 05:29N 55°59' E 010°58'611.4
2017-Mar-24 05:00N 56°00' E 010°48'1 2.0 270 / 41030.7 3.0 0.1 4.7
2017-Mar-24 04:33N 55°60' E 010°50'2 4.4
2017-Mar-24 04:00N 56°00' E 010°54'1 3.3 330 / 81029.8 3.0 1.1 4.6
2017-Mar-24 03:33N 55°59' E 010°54'4 6.7
2017-Mar-24 03:00N 56°00' E 011°00'3 4.4 330 / 61029.7 3.4 2.3 4.7
2017-Mar-24 02:21N 55°57' E 011°00'513.4
2017-Mar-24 02:00N 55°54' E 010°54'3 4.6 310 / 81029.2 4.1 3.0 4.7
2017-Mar-24 01:26N 55°52' E 010°52'4 9.8
2017-Mar-24 01:00N 55°48' E 010°48'4 5.7 320 / 61029.1 4.0 3.4 4.9
2017-Mar-24 00:20N 55°46' E 010°54'5 5.8
2017-Mar-23 23:26N 55°47' E 010°45'5 3.4
2017-Mar-23 22:00N 55°42' E 010°42'4 6.2 1028.0 4.4 2.6 5.0
2017-Mar-23 21:25N 55°39' E 010°46'3 8.4
2017-Mar-23 21:00N 55°36' E 010°48'3 4.5 090 / 81027.5 4.6 1.4 5.0
2017-Mar-23 20:17N 55°33' E 010°51'412.8
2017-Mar-23 20:00N 55°30' E 010°54'3 1.7 050 / 101027.0 5.1 1.5 5.1
2017-Mar-23 18:00N 55°30' E 011°00'7 6.9 040 / 121025.8 6.0 2.8 5.2
2017-Mar-23 17:00N 55°24' E 010°54'3 3.4 030 / 141025.0 5.9 4.2 5.7
2017-Mar-23 16:00N 55°24' E 010°48'7 6.8 010 / 161024.6 5.7 4.1 5.0
2017-Mar-23 15:00N 55°24' E 011°00'0 0.0 360 / 171024.0 6.9 4.6 5.1
2017-Mar-23 14:00N 55°24' E 011°00'3 3.3 360 / 141024.4 7.3 4.3 5.2
2017-Mar-23 13:12N 55°22' E 011°03'420.6
2017-Mar-23 13:00N 55°18' E 011°06'611.2 140 / 101024.5 8.0 2.3 5.2
2017-Mar-23 12:27N 55°12' E 011°06'1226.9
2017-Mar-23 12:00N 55°00' E 011°00'1 2.3 090 / 161024.3 6.9 2.6 5.1
2017-Mar-23 11:34N 55°00' E 011°02'813.7
2017-Mar-23 11:00N 54°54' E 010°54'410.3 070 / 141023.9 7.1 2.9 4.9
2017-Mar-23 10:34N 54°50' E 010°53'814.2
2017-Mar-23 10:00N 54°42' E 010°48'4 8.9 060 / 161023.6 5.7 3.4 4.6
2017-Mar-23 09:34N 54°39' E 010°45'1221.4
2017-Mar-23 09:00N 54°30' E 010°30'3 5.8 060 / 161023.1 4.9 2.6 4.3
2017-Mar-23 08:33N 54°32' E 010°27'1120.4
2017-Mar-23 08:00N 54°24' E 010°12'0 0.5 070 / 121022.4 5.1 3.2 4.7
2017-Mar-23 07:33N 54°24' E 010°12'712.6
2017-Mar-23 07:00N 54°18' E 010°06'0 0.0 050 / 81022.2 4.9 1.8 5.4
2017-Mar-23 06:00N 54°18' E 010°06'0 0.0 060 / 41022.1 4.3 0.2 5.3
2017-Mar-23 02:00N 54°18' E 010°06'0 0.0 1020.8 4.4-1.0 5.7
2017-Mar-23 01:00N 54°18' E 010°06'0 0.0 070 / 41021.0 4.5-1.0 5.6
2017-Mar-23 00:00N 54°18' E 010°06'0 0.0 1021.0 4.8-0.8 5.6
2017-Mar-22 23:00N 54°18' E 010°06'0 0.0 100 / 41020.9 5.5-0.6 5.3
2017-Mar-22 22:00N 54°18' E 010°06'0 0.0 100 / 41020.5 5.7-0.6 5.4
2017-Mar-22 21:00N 54°18' E 010°06'0 0.0 090 / 41020.2 6.4-0.6 5.6
2017-Mar-22 20:00N 54°18' E 010°06'0 0.0 1020.0 7.9-0.4 5.5
2017-Mar-22 19:00N 54°18' E 010°06'0 0.0 1019.4 8.8-1.9 5.5
2017-Mar-22 13:00N 54°18' E 010°06'0 0.0 200 / 121017.6 10.4-2.0 5.1
2017-Mar-22 12:00N 54°18' E 010°06'0 0.0 230 / 101017.5 9.6-0.6 5.1
2017-Mar-22 11:00N 54°18' E 010°06'0 0.0 210 / 101017.0 9.2-0.2 5.0
2017-Mar-22 10:00N 54°18' E 010°06'0 0.0 210 / 121016.8 8.7 0.5 5.0
2017-Mar-22 09:00N 54°18' E 010°06'7 6.9 220 / 101016.5 7.1 1.5 4.7
2017-Mar-22 08:00N 54°24' E 010°12'2 3.3 210 / 121015.8 4.9 0.9 4.7
2017-Mar-22 07:19N 54°26' E 010°13'722.6
2017-Mar-22 07:00N 54°30' E 010°24'9 9.2 210 / 171014.9 3.8 1.0 4.5
2017-Mar-22 06:00N 54°36' E 010°36'3 4.7 210 / 191014.2 3.9 0.8 4.4
2017-Mar-22 05:22N 54°34' E 010°40'512.8
2017-Mar-22 05:00N 54°36' E 010°48'3 6.7 220 / 191013.5 4.3 1.7 4.3
2017-Mar-22 04:34N 54°35' E 010°53'813.6
2017-Mar-22 04:00N 54°36' E 011°06'3 6.5 240 / 231013.7 4.8 1.7 4.4
2017-Mar-22 03:34N 54°36' E 011°11'1016.8
2017-Mar-22 03:00N 54°30' E 011°24'2 5.1 240 / 211013.4 5.0 1.7 4.4
2017-Mar-22 02:33N 54°32' E 011°27'915.9
2017-Mar-22 02:00N 54°30' E 011°42'4 7.8 230 / 231013.3 4.6 1.9 4.2
2017-Mar-22 01:26N 54°27' E 011°47'818.3
2017-Mar-22 01:00N 54°24' E 012°00'4 8.1 230 / 251012.1 5.0 1.9 4.2
2017-Mar-22 00:33N 54°27' E 012°04'1018.5
2017-Mar-22 00:00N 54°36' E 012°12'1 3.0 240 / 231011.4 4.9 2.1 4.1
2017-Mar-21 23:33N 54°35' E 012°14'915.8
2017-Mar-21 23:00N 54°42' E 012°24'1212.0 240 / 231010.8 5.0 2.2 3.9
2017-Mar-21 22:00N 54°48' E 012°42'1010.4 250 / 251010.5 5.0 2.0 3.9
2017-Mar-21 21:00N 54°48' E 013°00'1413.8 250 / 271009.5 5.3 2.0 3.7
2017-Mar-21 20:00N 54°48' E 013°24'1212.0 250 / 251008.9 5.1 2.3 3.9
2017-Mar-21 19:00N 54°42' E 013°42'1010.4 260 / 271007.9 5.6 2.6 3.9
2017-Mar-21 18:00N 54°42' E 014°00'1010.4 250 / 251007.1 6.1 2.8 4.1
2017-Mar-21 17:00N 54°42' E 014°18'1010.4 250 / 191006.7 5.7 3.2 3.6
2017-Mar-21 16:00N 54°42' E 014°36'1212.0 270 / 191005.5 5.0 4.3 3.7
2017-Mar-21 15:00N 54°48' E 014°54'3 6.6 200 / 191004.1 6.2 3.5 3.9
2017-Mar-21 14:33N 54°47' E 014°59'1018.6
2017-Mar-21 14:00N 54°54' E 015°12'3 6.6 220 / 211005.3 6.0 3.6 3.6
2017-Mar-21 13:33N 54°53' E 015°16'815.0
2017-Mar-21 13:00N 55°00' E 015°24'2 4.7 230 / 171004.7 5.3 4.2 3.6
2017-Mar-21 12:29N 55°02' E 015°24'1019.4
2017-Mar-21 12:00N 55°12' E 015°24'1 3.1 240 / 191003.9 6.1 3.9 3.6
2017-Mar-21 11:33N 55°13' E 015°26'5 8.9
2017-Mar-21 11:00N 55°18' E 015°24'2 4.1 240 / 191003.7 6.1 4.3 3.8
2017-Mar-21 10:33N 55°17' E 015°26'0 0.0
2017-Mar-21 09:33N 55°17' E 015°26'915.4
2017-Mar-21 09:00N 55°24' E 015°18'0 0.9 250 / 231002.7 5.0 4.2 3.2
2017-Mar-21 08:33N 55°24' E 015°18'3 5.9
2017-Mar-21 08:00N 55°24' E 015°12'2 4.3 240 / 231001.3 4.8 4.0 3.5
2017-Mar-21 07:33N 55°25' E 015°09'2 3.3
2017-Mar-21 07:00N 55°24' E 015°12'1 2.5 250 / 251000.8 5.0 4.4 3.4
2017-Mar-21 06:33N 55°24' E 015°10'1 2.0
2017-Mar-21 06:00N 55°24' E 015°12'0 1.1 250 / 251000.5 5.0 4.5 3.4
2017-Mar-21 05:34N 55°24' E 015°11'4 6.9
2017-Mar-21 05:00N 55°24' E 015°18'3 6.7 250 / 23999.7 4.7 4.7 3.2
2017-Mar-21 04:33N 55°27' E 015°17'3 5.1
2017-Mar-21 04:00N 55°24' E 015°18'2 3.7 260 / 23999.4 5.2 4.7 3.3
2017-Mar-21 03:34N 55°23' E 015°19'2 2.8
2017-Mar-21 03:00N 55°24' E 015°18'2 5.4 260 / 29997.6 5.6 4.5 3.7
2017-Mar-21 02:34N 55°22' E 015°20'4 7.1
2017-Mar-21 02:00N 55°18' E 015°18'2 4.6 260 / 33997.3 6.2 5.0 3.5
2017-Mar-21 01:32N 55°20' E 015°19'5 8.9
2017-Mar-21 01:00N 55°24' E 015°24'2 4.7 230 / 33996.2 7.1 6.4 3.3
2017-Mar-21 00:34N 55°26' E 015°24'915.5
2017-Mar-21 00:00N 55°18' E 015°18'1 2.5 210 / 25996.6 8.3 8.2 3.7
2017-Mar-20 23:33N 55°19' E 015°20'3 4.6
2017-Mar-20 23:00N 55°18' E 015°24'1 2.9 220 / 23997.1 7.3 7.3 3.6
2017-Mar-20 22:34N 55°19' E 015°22'711.9
2017-Mar-20 22:00N 55°24' E 015°30'1 2.4 180 / 17998.3 5.6 3.7
2017-Mar-20 21:34N 55°23' E 015°29'610.3
2017-Mar-20 21:00N 55°18' E 015°24'2 5.1 140 / 14999.7 4.7 4.6 3.7
2017-Mar-20 20:34N 55°16' E 015°22'2 3.9
2017-Mar-20 20:00N 55°18' E 015°24'1 2.8 150 / 171000.2 4.1 4.1 3.6
2017-Mar-20 19:34N 55°19' E 015°26'610.4
2017-Mar-20 19:00N 55°24' E 015°30'2 4.7 180 / 141001.6 3.9 3.9 3.6
2017-Mar-20 18:34N 55°22' E 015°31'610.1
2017-Mar-20 18:00N 55°18' E 015°24'3 7.3 180 / 141002.6 4.0 4.0 3.5
2017-Mar-20 17:34N 55°15' E 015°25'4 7.8
2017-Mar-20 17:00N 55°18' E 015°30'1 3.0 190 / 161003.1 4.2 3.7 3.6
2017-Mar-20 16:33N 55°17' E 015°29'814.8
2017-Mar-20 16:00N 55°24' E 015°36'1 2.1 220 / 141002.9 4.5 3.7 3.7
2017-Mar-20 15:23N 55°25' E 015°37'512.3
2017-Mar-20 15:00N 55°30' E 015°36'3 4.4 230 / 141003.3 4.8 3.6 3.3
2017-Mar-20 14:23N 55°28' E 015°38'3 6.9
2017-Mar-20 14:00N 55°30' E 015°36'3 6.2 230 / 161003.6 4.7 3.6 3.3
2017-Mar-20 13:34N 55°28' E 015°38'5 9.3
2017-Mar-20 13:00N 55°30' E 015°30'2 5.2 240 / 171003.3 4.6 3.5 3.2
2017-Mar-20 12:32N 55°28' E 015°30'2 4.3
2017-Mar-20 12:00N 55°30' E 015°30'2 5.4 250 / 161004.0 4.6 3.7 3.2
2017-Mar-20 11:33N 55°28' E 015°30'5 9.3
2017-Mar-20 11:00N 55°24' E 015°24'3 5.9 260 / 171003.5 4.5 3.7 3.4
2017-Mar-20 10:28N 55°26' E 015°27'4 8.1
2017-Mar-20 10:00N 55°30' E 015°30'3 6.7 260 / 141003.1 5.9 4.8 3.1
2017-Mar-20 09:33N 55°27' E 015°30'5 8.0
2017-Mar-20 09:00N 55°24' E 015°24'9 9.1 270 / 121002.8 3.7 3.6 3.6
2017-Mar-20 08:00N 55°30' E 015°36'3 7.6 240 / 81002.6 5.5 4.1 3.2
2017-Mar-20 07:33N 55°27' E 015°33'4 6.4
2017-Mar-20 07:00N 55°24' E 015°30'2 4.6 260 / 81002.6 3.1 2.8 3.5
2017-Mar-20 06:33N 55°26' E 015°32'5 8.8
2017-Mar-20 06:00N 55°30' E 015°36'3 7.2 250 / 81001.9 2.8 2.0 3.2
2017-Mar-20 05:33N 55°27' E 015°39'4 6.4
2017-Mar-20 05:00N 55°24' E 015°36'2 4.3 260 / 61001.8 4.8 4.5 3.6
2017-Mar-20 04:33N 55°24' E 015°33'2 3.3
2017-Mar-20 04:00N 55°24' E 015°36'1 2.6 140 / 81000.9 2.4 2.2 3.5
2017-Mar-20 03:33N 55°25' E 015°38'814.2
2017-Mar-20 03:00N 55°30' E 015°48'2 3.8 150 / 141000.7 2.4 2.1 3.3
2017-Mar-20 02:34N 55°28' E 015°47'5 9.5
2017-Mar-20 02:00N 55°24' E 015°42'2 5.3 150 / 141000.8 1.8 1.7 3.6
2017-Mar-20 01:34N 55°23' E 015°38'712.1
2017-Mar-20 01:00N 55°18' E 015°30'1 2.7 160 / 171000.6 1.3 1.3 3.5
2017-Mar-20 00:33N 55°17' E 015°28'5 5.4
2017-Mar-19 23:33N 55°14' E 015°21'4 7.6
2017-Mar-19 23:00N 55°18' E 015°18'3 6.1 150 / 211000.6 2.7 2.2 3.6
2017-Mar-19 22:33N 55°19' E 015°22'711.9
2017-Mar-19 22:00N 55°24' E 015°30'1 3.2 190 / 161001.6 2.6 2.0 3.6
2017-Mar-19 21:33N 55°24' E 015°32'813.9
2017-Mar-19 21:00N 55°30' E 015°42'2 3.7 120 / 171002.4 3.1 2.5 3.1
2017-Mar-19 20:33N 55°30' E 015°39'5 9.3
2017-Mar-19 20:00N 55°30' E 015°30'0 0.7 140 / 171002.6 3.0 2.6 2.9
2017-Mar-19 19:33N 55°30' E 015°30'915.6
2017-Mar-19 19:00N 55°24' E 015°18'1 2.0 160 / 141003.7 3.1 2.6 3.1
2017-Mar-19 18:33N 55°25' E 015°19'4 3.7
2017-Mar-19 17:33N 55°26' E 015°13'5 8.5
2017-Mar-19 17:00N 55°30' E 015°18'2 4.7 140 / 141004.1 3.1 2.5 3.2
2017-Mar-19 16:33N 55°31' E 015°21'5 8.8
2017-Mar-19 16:00N 55°36' E 015°18'1 1.2 150 / 141004.8 2.8 1.8 3.3
2017-Mar-19 15:33N 55°36' E 015°18'711.6
2017-Mar-19 15:00N 55°30' E 015°12'2 3.8 150 / 141005.2 3.0 1.9 3.3
2017-Mar-19 14:33N 55°30' E 015°09'814.2
2017-Mar-19 14:00N 55°24' E 015°00'0 0.9 140 / 141006.0 3.0 2.1 3.3
2017-Mar-19 13:33N 55°24' E 014°59'3 5.5
2017-Mar-19 13:00N 55°24' E 014°54'1 1.2 130 / 101006.3 2.9 1.2 3.4
2017-Mar-19 12:33N 55°25' E 014°54'5 9.7
2017-Mar-19 12:00N 55°30' E 014°54'3 6.9 120 / 81006.7 2.8 0.8 3.5
2017-Mar-19 11:33N 55°32' E 014°57'3 5.3
2017-Mar-19 11:00N 55°30' E 014°54'2 3.7 150 / 61007.3 2.7 0.3 3.4
2017-Mar-19 10:33N 55°31' E 014°56'610.6
2017-Mar-19 10:00N 55°30' E 015°06'2 5.1 1007.5 2.6 0.4 3.4
2017-Mar-19 09:33N 55°28' E 015°08'712.2
2017-Mar-19 09:00N 55°24' E 015°18'2 5.0 360 / 41007.7 2.4 0.2 3.2
2017-Mar-19 08:33N 55°25' E 015°21'5 9.2
2017-Mar-19 08:00N 55°24' E 015°30'3 6.9 340 / 101007.4 2.7 0.4 3.5
2017-Mar-19 07:33N 55°22' E 015°34'915.8
2017-Mar-19 07:00N 55°18' E 015°48'1 2.5 340 / 121007.5 2.8 1.0 3.5
2017-Mar-19 06:34N 55°19' E 015°47'4 7.1
2017-Mar-19 06:00N 55°18' E 015°54'1 1.6 330 / 161006.8 2.6 1.1 3.6
2017-Mar-19 05:27N 55°18' E 015°53'1 1.9
2017-Mar-19 05:00N 55°18' E 015°54'2 5.1 330 / 161006.5 2.7 1.0 3.6
2017-Mar-19 04:33N 55°19' E 015°50'2 2.9
2017-Mar-19 04:00N 55°18' E 015°48'4 9.2 320 / 171004.3 2.7 1.0 3.7
2017-Mar-19 03:33N 55°22' E 015°48'915.5
2017-Mar-19 03:00N 55°30' E 015°42'4 8.5 330 / 171004.4 2.5 0.7 3.0
2017-Mar-19 02:33N 55°34' E 015°44'1018.1
2017-Mar-19 02:00N 55°42' E 015°54'2 5.7 330 / 171003.1 2.2 0.8 3.2
2017-Mar-19 01:33N 55°43' E 015°58'916.6
2017-Mar-19 01:00N 55°48' E 016°12'4 8.3 350 / 171001.9 2.3 1.1 2.9
2017-Mar-19 00:33N 55°52' E 016°12'1118.9
2017-Mar-19 00:00N 56°00' E 016°24'1 3.0 350 / 211000.3 2.5 1.5 2.6
2017-Mar-18 23:33N 56°01' E 016°26'1018.4
2017-Mar-18 23:00N 56°06' E 016°42'3 6.8 350 / 21998.6 2.2 1.8 2.8
2017-Mar-18 22:33N 56°09' E 016°42'1017.1
2017-Mar-18 22:00N 56°18' E 016°48'3 6.2 350 / 27997.5 2.6 1.4 2.6
2017-Mar-18 21:33N 56°21' E 016°50'1017.3
2017-Mar-18 21:00N 56°30' E 016°54'3 6.8 320 / 17995.9 2.9 2.2 2.6
2017-Mar-18 20:33N 56°32' E 016°58'1119.3
2017-Mar-18 20:00N 56°42' E 017°06'1212.4 320 / 16994.8 2.8 2.0 2.5
2017-Mar-18 19:00N 56°54' E 017°12'1413.7 330 / 16994.0 2.9 2.2 2.6
2017-Mar-18 18:00N 57°06' E 017°24'1212.4 340 / 12993.2 2.4 2.4 2.6
2017-Mar-18 17:00N 57°18' E 017°30'1413.6 340 / 10992.8 2.5 2.4 2.6
2017-Mar-18 16:00N 57°30' E 017°42'1212.0 310 / 6992.2 2.4 2.4 2.6
2017-Mar-18 15:00N 57°42' E 017°42'1212.4 210 / 4991.8 2.3 2.3 2.6
2017-Mar-18 14:00N 57°54' E 017°48'9 8.7 230 / 4991.6 2.3 1.9 2.4
2017-Mar-18 13:00N 58°00' E 018°00'0 0.0 240 / 4991.3 2.4 2.2 2.4
2017-Mar-18 12:00N 58°00' E 018°00'0 0.0 230 / 6991.2 2.5 2.1 2.4
2017-Mar-18 11:00N 58°00' E 018°00'0 0.0 220 / 10991.0 2.5 1.7 2.4
2017-Mar-18 10:00N 58°00' E 018°00'0 0.0 220 / 12991.1 2.5 1.4 2.4
2017-Mar-18 09:00N 58°00' E 018°00'7 6.8 230 / 14990.9 2.4 1.3 2.3
2017-Mar-18 08:00N 58°06' E 017°54'7 6.8 230 / 12990.7 3.1 1.8 2.0
2017-Mar-18 07:00N 58°00' E 018°00'6 6.0 230 / 16992.0 3.3 1.8 2.3
2017-Mar-18 06:00N 57°54' E 018°00'7 6.8 250 / 16992.1 2.6 1.2 2.4
2017-Mar-18 05:00N 57°48' E 017°54'7 6.8 250 / 14992.2 2.6 1.3 2.2
2017-Mar-18 04:00N 57°54' E 017°48'7 6.8 250 / 17992.3 2.7 1.3 2.4
2017-Mar-18 03:00N 58°00' E 017°42'6 6.0 260 / 17992.5 2.9 1.2 2.1
2017-Mar-18 02:00N 57°54' E 017°42'3 3.2 240 / 19992.6 3.5 1.5 2.1
2017-Mar-18 01:00N 57°54' E 017°48'7 6.8 240 / 21992.8 3.2 1.2 2.3
2017-Mar-18 00:00N 58°00' E 017°54'3 3.2 240 / 21992.6 3.2 1.4 2.2
2017-Mar-17 23:00N 58°00' E 018°00'6 6.0 230 / 21992.8 3.2 1.5 2.3
2017-Mar-17 22:00N 58°06' E 018°00'7 6.8 230 / 21993.6 3.2 1.1 2.3
2017-Mar-17 21:00N 58°12' E 017°54'1212.4 240 / 25993.0 3.5 1.3 2.2
2017-Mar-17 20:00N 58°24' E 017°48'0 0.0 230 / 19993.2 3.8 0.8 2.1
2017-Mar-17 19:00N 58°24' E 017°48'20 9.9 240 / 19993.3 3.9 0.5 2.0
2017-Mar-17 17:00N 58°36' E 018°18'7 6.8 240 / 23992.2 4.3 0.6 2.2
2017-Mar-17 16:00N 58°42' E 018°24'0 0.0 230 / 25992.3 4.1 0.5 1.9
2017-Mar-17 15:00N 58°42' E 018°24'0 0.0 230 / 21992.3 4.0 0.6 2.0
2017-Mar-17 14:00N 58°42' E 018°24'7 6.8 240 / 23993.0 4.2 0.7 2.0
2017-Mar-17 13:00N 58°36' E 018°18'0 0.0 250 / 21993.5 4.1 0.7 1.9
2017-Mar-17 12:00N 58°36' E 018°18'0 0.0 240 / 21993.8 3.9 1.1 1.9
2017-Mar-17 11:00N 58°36' E 018°18'0 0.0 240 / 21994.1 3.6 1.3 2.0
2017-Mar-17 10:00N 58°36' E 018°18'0 0.0 250 / 21994.9 3.4 1.4 2.0
2017-Mar-17 09:00N 58°36' E 018°18'0 0.0 260 / 23994.9 3.6 1.6 1.9
2017-Mar-17 08:00N 58°36' E 018°18'0 0.0 250 / 21995.1 3.7 2.2 2.0
2017-Mar-17 07:00N 58°36' E 018°18'0 0.0 250 / 25995.3 4.3 3.0 2.0
2017-Mar-17 05:00N 58°36' E 018°18'0 0.0 210 / 29995.5 4.5 3.8 2.0
2017-Mar-17 04:00N 58°36' E 018°18'7 6.8 210 / 29996.6 4.5 3.9 1.9
2017-Mar-17 03:00N 58°42' E 018°24'0 0.0 210 / 31998.4 4.2 3.8 1.9
2017-Mar-17 02:00N 58°42' E 018°24'7 6.8 200 / 31999.8 4.0 3.8 1.9
2017-Mar-17 01:00N 58°36' E 018°30'0 0.0 200 / 311001.5 4.2 3.7 1.9
2017-Mar-17 00:00N 58°36' E 018°30'7 6.8 200 / 311003.0 5.0 4.3 1.9
2017-Mar-16 23:00N 58°42' E 018°24'0 0.0 210 / 311004.6 5.1 3.4 1.8
2017-Mar-16 22:00N 58°42' E 018°24'0 0.0 210 / 271006.2 4.2 2.7 1.8
2017-Mar-16 21:00N 58°42' E 018°24'3 3.1 210 / 271007.4 4.5 2.4 1.9
2017-Mar-16 20:00N 58°42' E 018°30'1515.2 190 / 291008.4 3.8 2.2 1.7
2017-Mar-16 19:00N 58°54' E 018°48'1111.1 200 / 271009.8 3.3 1.0 2.3
2017-Mar-16 18:00N 59°00' E 019°06'1111.0 210 / 211010.9 3.5 0.5 1.7
2017-Mar-16 17:00N 59°06' E 019°24'1111.0 220 / 211011.9 3.4-0.4 1.6
2017-Mar-16 16:00N 59°12' E 019°42'1515.1 240 / 191012.6 3.4-0.8 1.7
2017-Mar-16 15:00N 59°24' E 020°00'9 9.2 230 / 161013.0 3.0-0.1 1.8
2017-Mar-16 14:00N 59°24' E 020°18'1110.9 250 / 161013.5 3.3-0.2 2.1
2017-Mar-16 13:00N 59°30' E 020°36'1212.4 270 / 161014.0 2.8 0.1 1.8
2017-Mar-16 12:00N 59°42' E 020°30'1212.1 280 / 141013.6 2.5-0.3 1.6
2017-Mar-16 11:00N 59°42' E 020°06'7 6.7 300 / 121013.5 3.0-0.6 1.3
2017-Mar-16 10:00N 59°48' E 020°00'9 9.1 300 / 161012.8 2.3-0.9 1.3
2017-Mar-16 09:00N 59°48' E 019°42'7 6.7 300 / 161013.0 3.2-0.6 1.2
2017-Mar-16 08:00N 59°54' E 019°36'6 6.0 300 / 191012.5 2.0-1.4 1.2
2017-Mar-16 07:00N 60°00' E 019°36'   300 / 211012.2 2.0-1.6 1.1
Track history (hours):
 
Tides and Currents Weather Stations Pressure Air Temp Water Temp Dewpoint Dewpoint Depression Visibility Wind Speed Wind Dir Waves Ship Positions

Oceanographic research ship Maria S. Merian (Germany)

Last reported at 2017-Mar-26 06:24 UTC. Time now 2017-Mar-26 07:14 UTC.
Position N 56°25' E 011°15'.

Length 94.8 m; beam 19.2 m; draft 6.5 m.

Type: Other ship. MMSI: 211753000.

Date/timePositionNaut miles runAvg speedWind from/ knotsBaromVisibWave heightAir tempDewpointWater temp
2017-Mar-26 06:24N 56°25' E 011°15'1 1.4
2017-Mar-26 05:31N 56°25' E 011°17'1 1.6
2017-Mar-26 05:00N 56°24' E 011°18'3 7.2 270 / 41026.9 3.4 3.3 5.0
2017-Mar-26 04:32N 56°21' E 011°15'610.7
2017-Mar-26 04:00N 56°18' E 011°06'3 6.3 320 / 61027.0 3.8 3.7 5.1
2017-Mar-26 03:33N 56°21' E 011°06'4 1.7
2017-Mar-26 01:23N 56°23' E 011°12'2 2.0
2017-Mar-26 00:33N 56°23' E 011°15'2 3.6
2017-Mar-26 00:00N 56°24' E 011°12'7 6.6 320 / 121027.2 5.8 5.8 4.6
2017-Mar-25 23:00N 56°24' E 011°24'2 3.3 320 / 161026.7 4.5 4.4 4.5
2017-Mar-25 22:31N 56°23' E 011°23'815.0
2017-Mar-25 22:00N 56°30' E 011°18'4 8.7 320 / 141026.8 4.7 4.7 4.6
2017-Mar-25 21:32N 56°26' E 011°19'3 6.3
2017-Mar-25 21:00N 56°24' E 011°24'3 5.6 300 / 161026.5 4.6 4.6 4.7
2017-Mar-25 20:25N 56°27' E 011°21'3 7.9
2017-Mar-25 20:00N 56°24' E 011°24'3 3.3 310 / 171026.6 5.5 4.9 4.6
2017-Mar-25 19:06N 56°27' E 011°26'331.2
2017-Mar-25 19:00N 56°30' E 011°24'6 3.8 300 / 141026.3 6.0 3.7 4.7
2017-Mar-25 17:33N 56°26' E 011°32'3 6.2
2017-Mar-25 17:00N 56°24' E 011°36'0 0.0 310 / 101026.0 6.1 3.8 4.5
2017-Mar-25 16:00N 56°24' E 011°36'0 0.0 320 / 161026.2 6.5 3.3 4.5
2017-Mar-25 15:00N 56°24' E 011°36'7 6.9 330 / 121026.4 6.9 2.7 4.5
2017-Mar-25 14:00N 56°18' E 011°30'3 3.3 310 / 121026.9 6.2 3.6 4.5
2017-Mar-25 13:00N 56°18' E 011°24'7 6.7 320 / 161027.6 7.8 3.8 4.3
2017-Mar-25 12:00N 56°18' E 011°12'2 3.1 320 / 171027.7 6.7 3.1 4.8
2017-Mar-25 11:29N 56°19' E 011°11'3 6.3
2017-Mar-25 11:00N 56°18' E 011°06'0 0.0 320 / 171027.9 7.5 3.3 5.3
2017-Mar-25 10:00N 56°18' E 011°06'0 0.0 320 / 191028.6 7.0 2.9 5.3
2017-Mar-25 09:00N 56°18' E 011°06'3 3.3 310 / 211028.7 7.9 3.8 4.9
2017-Mar-25 08:00N 56°18' E 011°12'0 0.0 300 / 211028.2 6.2 4.3 5.0
2017-Mar-25 07:00N 56°18' E 011°12'3 6.0 300 / 211028.1 6.2 4.5 4.9
2017-Mar-25 06:33N 56°17' E 011°08'3 4.6
2017-Mar-25 06:00N 56°18' E 011°12'3 3.3 290 / 211027.6 5.8 4.4 4.9
2017-Mar-25 05:00N 56°18' E 011°06'1 2.1 290 / 211028.2 6.1 4.9 4.7
2017-Mar-25 04:21N 56°19' E 011°07'3 8.1
2017-Mar-25 04:00N 56°18' E 011°12'5 5.1 290 / 171028.9 5.6 4.4 5.2
2017-Mar-25 03:03N 56°18' E 011°03'224.6
2017-Mar-25 03:00N 56°18' E 011°06'1 0.5 290 / 271028.4 5.0 3.6 4.9
2017-Mar-25 01:21N 56°17' E 011°06'1 2.3
2017-Mar-25 01:00N 56°18' E 011°06'3 4.1 280 / 231030.4 5.3 3.1 5.2
2017-Mar-25 00:18N 56°17' E 011°01'3 9.2
2017-Mar-25 00:00N 56°18' E 011°06'3 3.3 270 / 211030.9 4.7 2.9 5.1
2017-Mar-24 23:00N 56°18' E 011°00'4 8.3 270 / 161031.7 4.8 2.2 4.9
2017-Mar-24 22:31N 56°14' E 010°58'5 9.2
2017-Mar-24 22:00N 56°12' E 011°06'1 3.1 280 / 171031.7 4.7 2.7 5.1
2017-Mar-24 21:33N 56°13' E 011°08'5 8.1
2017-Mar-24 21:00N 56°12' E 011°00'2 4.2 290 / 171032.8 5.2 2.3 5.0
2017-Mar-24 20:33N 56°12' E 010°57'5 9.1
2017-Mar-24 20:00N 56°12' E 011°06'3 3.3 290 / 171032.1 5.7 1.5 5.1
2017-Mar-24 19:00N 56°12' E 011°00'3 6.6 300 / 171032.0 6.5-0.1 5.0
2017-Mar-24 18:30N 56°10' E 010°56'5 3.0
2017-Mar-24 17:00N 56°06' E 011°00'4 5.3 280 / 101032.0 7.7 2.3 5.3
2017-Mar-24 16:16N 56°07' E 010°54'413.8
2017-Mar-24 16:00N 56°06' E 011°00'0 0.0 230 / 161031.8 6.6 2.7 5.4
2017-Mar-24 15:00N 56°06' E 011°00'2 3.0 230 / 121032.3 6.2 3.4 5.5
2017-Mar-24 14:28N 56°06' E 010°57'2 3.3
2017-Mar-24 14:00N 56°06' E 011°00'1 0.9 230 / 121032.2 5.6 3.1 5.2
2017-Mar-24 13:13N 56°06' E 011°01'417.5
2017-Mar-24 13:00N 56°06' E 010°54'2 5.0 250 / 121032.6 5.9 1.2 5.1
2017-Mar-24 12:33N 56°04' E 010°55'4 7.0
2017-Mar-24 12:00N 56°00' E 010°54'3 3.4 260 / 101032.6 5.0 1.4 5.1
2017-Mar-24 11:00N 56°00' E 011°00'3 3.4 250 / 101032.3 6.0 2.4 4.9
2017-Mar-24 10:00N 56°00' E 010°54'0 0.0 270 / 81032.6 4.8 1.9 4.8
2017-Mar-24 09:00N 56°00' E 010°54'1 0.9 280 / 101032.4 6.5 2.1 5.0
2017-Mar-24 08:03N 55°59' E 010°53'112.3
2017-Mar-24 08:00N 56°00' E 010°54'1 2.6 270 / 81032.0 6.6 1.0 4.8
2017-Mar-24 07:33N 55°59' E 010°53'3 5.0
2017-Mar-24 07:00N 56°00' E 010°48'1 1.6 280 / 61031.9 3.6-0.0 4.7
2017-Mar-24 06:32N 55°60' E 010°49'611.1
2017-Mar-24 06:00N 56°00' E 011°00'2 3.2 300 / 81031.4 3.2-1.1 4.7
2017-Mar-24 05:29N 55°59' E 010°58'611.4
2017-Mar-24 05:00N 56°00' E 010°48'1 2.0 270 / 41030.7 3.0 0.1 4.7
2017-Mar-24 04:33N 55°60' E 010°50'2 4.4
2017-Mar-24 04:00N 56°00' E 010°54'1 3.3 330 / 81029.8 3.0 1.1 4.6
2017-Mar-24 03:33N 55°59' E 010°54'4 6.7
2017-Mar-24 03:00N 56°00' E 011°00'3 4.4 330 / 61029.7 3.4 2.3 4.7
2017-Mar-24 02:21N 55°57' E 011°00'513.4
2017-Mar-24 02:00N 55°54' E 010°54'3 4.6 310 / 81029.2 4.1 3.0 4.7
2017-Mar-24 01:26N 55°52' E 010°52'4 9.8
2017-Mar-24 01:00N 55°48' E 010°48'4 5.7 320 / 61029.1 4.0 3.4 4.9
2017-Mar-24 00:20N 55°46' E 010°54'5 5.8
2017-Mar-23 23:26N 55°47' E 010°45'5 3.4
2017-Mar-23 22:00N 55°42' E 010°42'4 6.2 1028.0 4.4 2.6 5.0
2017-Mar-23 21:25N 55°39' E 010°46'3 8.4
2017-Mar-23 21:00N 55°36' E 010°48'3 4.5 090 / 81027.5 4.6 1.4 5.0
2017-Mar-23 20:17N 55°33' E 010°51'412.8
2017-Mar-23 20:00N 55°30' E 010°54'3 1.7 050 / 101027.0 5.1 1.5 5.1
2017-Mar-23 18:00N 55°30' E 011°00'7 6.9 040 / 121025.8 6.0 2.8 5.2
2017-Mar-23 17:00N 55°24' E 010°54'3 3.4 030 / 141025.0 5.9 4.2 5.7
2017-Mar-23 16:00N 55°24' E 010°48'7 6.8 010 / 161024.6 5.7 4.1 5.0
2017-Mar-23 15:00N 55°24' E 011°00'0 0.0 360 / 171024.0 6.9 4.6 5.1
2017-Mar-23 14:00N 55°24' E 011°00'3 3.3 360 / 141024.4 7.3 4.3 5.2
2017-Mar-23 13:12N 55°22' E 011°03'420.6
2017-Mar-23 13:00N 55°18' E 011°06'611.2 140 / 101024.5 8.0 2.3 5.2
2017-Mar-23 12:27N 55°12' E 011°06'1226.9
2017-Mar-23 12:00N 55°00' E 011°00'1 2.3 090 / 161024.3 6.9 2.6 5.1
2017-Mar-23 11:34N 55°00' E 011°02'813.7
2017-Mar-23 11:00N 54°54' E 010°54'410.3 070 / 141023.9 7.1 2.9 4.9
2017-Mar-23 10:34N 54°50' E 010°53'814.2
2017-Mar-23 10:00N 54°42' E 010°48'4 8.9 060 / 161023.6 5.7 3.4 4.6
2017-Mar-23 09:34N 54°39' E 010°45'1221.4
2017-Mar-23 09:00N 54°30' E 010°30'3 5.8 060 / 161023.1 4.9 2.6 4.3
2017-Mar-23 08:33N 54°32' E 010°27'1120.4
2017-Mar-23 08:00N 54°24' E 010°12'0 0.5 070 / 121022.4 5.1 3.2 4.7
2017-Mar-23 07:33N 54°24' E 010°12'712.6
2017-Mar-23 07:00N 54°18' E 010°06'0 0.0 050 / 81022.2 4.9 1.8 5.4
2017-Mar-23 06:00N 54°18' E 010°06'0 0.0 060 / 41022.1 4.3 0.2 5.3
2017-Mar-23 02:00N 54°18' E 010°06'0 0.0 1020.8 4.4-1.0 5.7
2017-Mar-23 01:00N 54°18' E 010°06'0 0.0 070 / 41021.0 4.5-1.0 5.6
2017-Mar-23 00:00N 54°18' E 010°06'0 0.0 1021.0 4.8-0.8 5.6
2017-Mar-22 23:00N 54°18' E 010°06'0 0.0 100 / 41020.9 5.5-0.6 5.3
2017-Mar-22 22:00N 54°18' E 010°06'0 0.0 100 / 41020.5 5.7-0.6 5.4
2017-Mar-22 21:00N 54°18' E 010°06'0 0.0 090 / 41020.2 6.4-0.6 5.6
2017-Mar-22 20:00N 54°18' E 010°06'0 0.0 1020.0 7.9-0.4 5.5
2017-Mar-22 19:00N 54°18' E 010°06'0 0.0 1019.4 8.8-1.9 5.5
2017-Mar-22 13:00N 54°18' E 010°06'0 0.0 200 / 121017.6 10.4-2.0 5.1
2017-Mar-22 12:00N 54°18' E 010°06'0 0.0 230 / 101017.5 9.6-0.6 5.1
2017-Mar-22 11:00N 54°18' E 010°06'0 0.0 210 / 101017.0 9.2-0.2 5.0
2017-Mar-22 10:00N 54°18' E 010°06'0 0.0 210 / 121016.8 8.7 0.5 5.0
2017-Mar-22 09:00N 54°18' E 010°06'7 6.9 220 / 101016.5 7.1 1.5 4.7
2017-Mar-22 08:00N 54°24' E 010°12'2 3.3 210 / 121015.8 4.9 0.9 4.7
2017-Mar-22 07:19N 54°26' E 010°13'722.6
2017-Mar-22 07:00N 54°30' E 010°24'9 9.2 210 / 171014.9 3.8 1.0 4.5
2017-Mar-22 06:00N 54°36' E 010°36'3 4.7 210 / 191014.2 3.9 0.8 4.4
2017-Mar-22 05:22N 54°34' E 010°40'512.8
2017-Mar-22 05:00N 54°36' E 010°48'3 6.7 220 / 191013.5 4.3 1.7 4.3
2017-Mar-22 04:34N 54°35' E 010°53'813.6
2017-Mar-22 04:00N 54°36' E 011°06'3 6.5 240 / 231013.7 4.8 1.7 4.4
2017-Mar-22 03:34N 54°36' E 011°11'1016.8
2017-Mar-22 03:00N 54°30' E 011°24'2 5.1 240 / 211013.4 5.0 1.7 4.4
2017-Mar-22 02:33N 54°32' E 011°27'915.9
2017-Mar-22 02:00N 54°30' E 011°42'4 7.8 230 / 231013.3 4.6 1.9 4.2
2017-Mar-22 01:26N 54°27' E 011°47'818.3
2017-Mar-22 01:00N 54°24' E 012°00'4 8.1 230 / 251012.1 5.0 1.9 4.2
2017-Mar-22 00:33N 54°27' E 012°04'1018.5
2017-Mar-22 00:00N 54°36' E 012°12'1 3.0 240 / 231011.4 4.9 2.1 4.1
2017-Mar-21 23:33N 54°35' E 012°14'915.8
2017-Mar-21 23:00N 54°42' E 012°24'1212.0 240 / 231010.8 5.0 2.2 3.9
2017-Mar-21 22:00N 54°48' E 012°42'1010.4 250 / 251010.5 5.0 2.0 3.9
2017-Mar-21 21:00N 54°48' E 013°00'1413.8 250 / 271009.5 5.3 2.0 3.7
2017-Mar-21 20:00N 54°48' E 013°24'1212.0 250 / 251008.9 5.1 2.3 3.9
2017-Mar-21 19:00N 54°42' E 013°42'1010.4 260 / 271007.9 5.6 2.6 3.9
2017-Mar-21 18:00N 54°42' E 014°00'1010.4 250 / 251007.1 6.1 2.8 4.1
2017-Mar-21 17:00N 54°42' E 014°18'1010.4 250 / 191006.7 5.7 3.2 3.6
2017-Mar-21 16:00N 54°42' E 014°36'1212.0 270 / 191005.5 5.0 4.3 3.7
2017-Mar-21 15:00N 54°48' E 014°54'3 6.6 200 / 191004.1 6.2 3.5 3.9
2017-Mar-21 14:33N 54°47' E 014°59'1018.6
2017-Mar-21 14:00N 54°54' E 015°12'3 6.6 220 / 211005.3 6.0 3.6 3.6
2017-Mar-21 13:33N 54°53' E 015°16'815.0
2017-Mar-21 13:00N 55°00' E 015°24'2 4.7 230 / 171004.7 5.3 4.2 3.6
2017-Mar-21 12:29N 55°02' E 015°24'1019.4
2017-Mar-21 12:00N 55°12' E 015°24'1 3.1 240 / 191003.9 6.1 3.9 3.6
2017-Mar-21 11:33N 55°13' E 015°26'5 8.9
2017-Mar-21 11:00N 55°18' E 015°24'2 4.1 240 / 191003.7 6.1 4.3 3.8
2017-Mar-21 10:33N 55°17' E 015°26'0 0.0
2017-Mar-21 09:33N 55°17' E 015°26'915.4
2017-Mar-21 09:00N 55°24' E 015°18'0 0.9 250 / 231002.7 5.0 4.2 3.2
2017-Mar-21 08:33N 55°24' E 015°18'3 5.9
2017-Mar-21 08:00N 55°24' E 015°12'2 4.3 240 / 231001.3 4.8 4.0 3.5
2017-Mar-21 07:33N 55°25' E 015°09'2 3.3
2017-Mar-21 07:00N 55°24' E 015°12'1 2.5 250 / 251000.8 5.0 4.4 3.4
2017-Mar-21 06:33N 55°24' E 015°10'1 2.0
2017-Mar-21 06:00N 55°24' E 015°12'0 1.1 250 / 251000.5 5.0 4.5 3.4
2017-Mar-21 05:34N 55°24' E 015°11'4 6.9
2017-Mar-21 05:00N 55°24' E 015°18'3 6.7 250 / 23999.7 4.7 4.7 3.2
2017-Mar-21 04:33N 55°27' E 015°17'3 5.1
2017-Mar-21 04:00N 55°24' E 015°18'2 3.7 260 / 23999.4 5.2 4.7 3.3
2017-Mar-21 03:34N 55°23' E 015°19'2 2.8
2017-Mar-21 03:00N 55°24' E 015°18'2 5.4 260 / 29997.6 5.6 4.5 3.7
2017-Mar-21 02:34N 55°22' E 015°20'4 7.1
2017-Mar-21 02:00N 55°18' E 015°18'2 4.6 260 / 33997.3 6.2 5.0 3.5
2017-Mar-21 01:32N 55°20' E 015°19'5 8.9
2017-Mar-21 01:00N 55°24' E 015°24'2 4.7 230 / 33996.2 7.1 6.4 3.3
2017-Mar-21 00:34N 55°26' E 015°24'915.5
2017-Mar-21 00:00N 55°18' E 015°18'1 2.5 210 / 25996.6 8.3 8.2 3.7
2017-Mar-20 23:33N 55°19' E 015°20'3 4.6
2017-Mar-20 23:00N 55°18' E 015°24'1 2.9 220 / 23997.1 7.3 7.3 3.6
2017-Mar-20 22:34N 55°19' E 015°22'711.9
2017-Mar-20 22:00N 55°24' E 015°30'1 2.4 180 / 17998.3 5.6 3.7
2017-Mar-20 21:34N 55°23' E 015°29'610.3
2017-Mar-20 21:00N 55°18' E 015°24'2 5.1 140 / 14999.7 4.7 4.6 3.7
2017-Mar-20 20:34N 55°16' E 015°22'2 3.9
2017-Mar-20 20:00N 55°18' E 015°24'1 2.8 150 / 171000.2 4.1 4.1 3.6
2017-Mar-20 19:34N 55°19' E 015°26'610.4
2017-Mar-20 19:00N 55°24' E 015°30'2 4.7 180 / 141001.6 3.9 3.9 3.6
2017-Mar-20 18:34N 55°22' E 015°31'610.1
2017-Mar-20 18:00N 55°18' E 015°24'3 7.3 180 / 141002.6 4.0 4.0 3.5
2017-Mar-20 17:34N 55°15' E 015°25'4 7.8
2017-Mar-20 17:00N 55°18' E 015°30'1 3.0 190 / 161003.1 4.2 3.7 3.6
2017-Mar-20 16:33N 55°17' E 015°29'814.8
2017-Mar-20 16:00N 55°24' E 015°36'1 2.1 220 / 141002.9 4.5 3.7 3.7
2017-Mar-20 15:23N 55°25' E 015°37'512.3
2017-Mar-20 15:00N 55°30' E 015°36'3 4.4 230 / 141003.3 4.8 3.6 3.3
2017-Mar-20 14:23N 55°28' E 015°38'3 6.9
2017-Mar-20 14:00N 55°30' E 015°36'3 6.2 230 / 161003.6 4.7 3.6 3.3
2017-Mar-20 13:34N 55°28' E 015°38'5 9.3
2017-Mar-20 13:00N 55°30' E 015°30'2 5.2 240 / 171003.3 4.6 3.5 3.2
2017-Mar-20 12:32N 55°28' E 015°30'2 4.3
2017-Mar-20 12:00N 55°30' E 015°30'2 5.4 250 / 161004.0 4.6 3.7 3.2
2017-Mar-20 11:33N 55°28' E 015°30'5 9.3
2017-Mar-20 11:00N 55°24' E 015°24'3 5.9 260 / 171003.5 4.5 3.7 3.4
2017-Mar-20 10:28N 55°26' E 015°27'4 8.1
2017-Mar-20 10:00N 55°30' E 015°30'3 6.7 260 / 141003.1 5.9 4.8 3.1
2017-Mar-20 09:33N 55°27' E 015°30'5 8.0
2017-Mar-20 09:00N 55°24' E 015°24'9 9.1 270 / 121002.8 3.7 3.6 3.6
2017-Mar-20 08:00N 55°30' E 015°36'3 7.6 240 / 81002.6 5.5 4.1 3.2
2017-Mar-20 07:33N 55°27' E 015°33'4 6.4
2017-Mar-20 07:00N 55°24' E 015°30'2 4.6 260 / 81002.6 3.1 2.8 3.5
2017-Mar-20 06:33N 55°26' E 015°32'5 8.8
2017-Mar-20 06:00N 55°30' E 015°36'3 7.2 250 / 81001.9 2.8 2.0 3.2
2017-Mar-20 05:33N 55°27' E 015°39'4 6.4
2017-Mar-20 05:00N 55°24' E 015°36'2 4.3 260 / 61001.8 4.8 4.5 3.6
2017-Mar-20 04:33N 55°24' E 015°33'2 3.3
2017-Mar-20 04:00N 55°24' E 015°36'1 2.6 140 / 81000.9 2.4 2.2 3.5
2017-Mar-20 03:33N 55°25' E 015°38'814.2
2017-Mar-20 03:00N 55°30' E 015°48'2 3.8 150 / 141000.7 2.4 2.1 3.3
2017-Mar-20 02:34N 55°28' E 015°47'5 9.5
2017-Mar-20 02:00N 55°24' E 015°42'2 5.3 150 / 141000.8 1.8 1.7 3.6
2017-Mar-20 01:34N 55°23' E 015°38'712.1
2017-Mar-20 01:00N 55°18' E 015°30'1 2.7 160 / 171000.6 1.3 1.3 3.5
2017-Mar-20 00:33N 55°17' E 015°28'5 5.4
2017-Mar-19 23:33N 55°14' E 015°21'4 7.6
2017-Mar-19 23:00N 55°18' E 015°18'3 6.1 150 / 211000.6 2.7 2.2 3.6
2017-Mar-19 22:33N 55°19' E 015°22'711.9
2017-Mar-19 22:00N 55°24' E 015°30'1 3.2 190 / 161001.6 2.6 2.0 3.6
2017-Mar-19 21:33N 55°24' E 015°32'813.9
2017-Mar-19 21:00N 55°30' E 015°42'2 3.7 120 / 171002.4 3.1 2.5 3.1
2017-Mar-19 20:33N 55°30' E 015°39'5 9.3
2017-Mar-19 20:00N 55°30' E 015°30'0 0.7 140 / 171002.6 3.0 2.6 2.9
2017-Mar-19 19:33N 55°30' E 015°30'915.6
2017-Mar-19 19:00N 55°24' E 015°18'1 2.0 160 / 141003.7 3.1 2.6 3.1
2017-Mar-19 18:33N 55°25' E 015°19'4 3.7
2017-Mar-19 17:33N 55°26' E 015°13'5 8.5
2017-Mar-19 17:00N 55°30' E 015°18'2 4.7 140 / 141004.1 3.1 2.5 3.2
2017-Mar-19 16:33N 55°31' E 015°21'5 8.8
2017-Mar-19 16:00N 55°36' E 015°18'1 1.2 150 / 141004.8 2.8 1.8 3.3
2017-Mar-19 15:33N 55°36' E 015°18'711.6
2017-Mar-19 15:00N 55°30' E 015°12'2 3.8 150 / 141005.2 3.0 1.9 3.3
2017-Mar-19 14:33N 55°30' E 015°09'814.2
2017-Mar-19 14:00N 55°24' E 015°00'0 0.9 140 / 141006.0 3.0 2.1 3.3
2017-Mar-19 13:33N 55°24' E 014°59'3 5.5
2017-Mar-19 13:00N 55°24' E 014°54'1 1.2 130 / 101006.3 2.9 1.2 3.4
2017-Mar-19 12:33N 55°25' E 014°54'5 9.7
2017-Mar-19 12:00N 55°30' E 014°54'3 6.9 120 / 81006.7 2.8 0.8 3.5
2017-Mar-19 11:33N 55°32' E 014°57'3 5.3
2017-Mar-19 11:00N 55°30' E 014°54'2 3.7 150 / 61007.3 2.7 0.3 3.4
2017-Mar-19 10:33N 55°31' E 014°56'610.6
2017-Mar-19 10:00N 55°30' E 015°06'2 5.1 1007.5 2.6 0.4 3.4
2017-Mar-19 09:33N 55°28' E 015°08'712.2
2017-Mar-19 09:00N 55°24' E 015°18'2 5.0 360 / 41007.7 2.4 0.2 3.2
2017-Mar-19 08:33N 55°25' E 015°21'5 9.2
2017-Mar-19 08:00N 55°24' E 015°30'3 6.9 340 / 101007.4 2.7 0.4 3.5
2017-Mar-19 07:33N 55°22' E 015°34'915.8
2017-Mar-19 07:00N 55°18' E 015°48'1 2.5 340 / 121007.5 2.8 1.0 3.5
2017-Mar-19 06:34N 55°19' E 015°47'4 7.1
2017-Mar-19 06:00N 55°18' E 015°54'1 1.6 330 / 161006.8 2.6 1.1 3.6
2017-Mar-19 05:27N 55°18' E 015°53'1 1.9
2017-Mar-19 05:00N 55°18' E 015°54'2 5.1 330 / 161006.5 2.7 1.0 3.6
2017-Mar-19 04:33N 55°19' E 015°50'2 2.9
2017-Mar-19 04:00N 55°18' E 015°48'4 9.2 320 / 171004.3 2.7 1.0 3.7
2017-Mar-19 03:33N 55°22' E 015°48'915.5
2017-Mar-19 03:00N 55°30' E 015°42'4 8.5 330 / 171004.4 2.5 0.7 3.0
2017-Mar-19 02:33N 55°34' E 015°44'1018.1
2017-Mar-19 02:00N 55°42' E 015°54'2 5.7 330 / 171003.1 2.2 0.8 3.2
2017-Mar-19 01:33N 55°43' E 015°58'916.6
2017-Mar-19 01:00N 55°48' E 016°12'4 8.3 350 / 171001.9 2.3 1.1 2.9
2017-Mar-19 00:33N 55°52' E 016°12'1118.9
2017-Mar-19 00:00N 56°00' E 016°24'1 3.0 350 / 211000.3 2.5 1.5 2.6
2017-Mar-18 23:33N 56°01' E 016°26'1018.4
2017-Mar-18 23:00N 56°06' E 016°42'3 6.8 350 / 21998.6 2.2 1.8 2.8
2017-Mar-18 22:33N 56°09' E 016°42'1017.1
2017-Mar-18 22:00N 56°18' E 016°48'3 6.2 350 / 27997.5 2.6 1.4 2.6
2017-Mar-18 21:33N 56°21' E 016°50'1017.3
2017-Mar-18 21:00N 56°30' E 016°54'3 6.8 320 / 17995.9 2.9 2.2 2.6
2017-Mar-18 20:33N 56°32' E 016°58'1119.3
2017-Mar-18 20:00N 56°42' E 017°06'1212.4 320 / 16994.8 2.8 2.0 2.5
2017-Mar-18 19:00N 56°54' E 017°12'1413.7 330 / 16994.0 2.9 2.2 2.6
2017-Mar-18 18:00N 57°06' E 017°24'1212.4 340 / 12993.2 2.4 2.4 2.6
2017-Mar-18 17:00N 57°18' E 017°30'1413.6 340 / 10992.8 2.5 2.4 2.6
2017-Mar-18 16:00N 57°30' E 017°42'1212.0 310 / 6992.2 2.4 2.4 2.6
2017-Mar-18 15:00N 57°42' E 017°42'1212.4 210 / 4991.8 2.3 2.3 2.6
2017-Mar-18 14:00N 57°54' E 017°48'9 8.7 230 / 4991.6 2.3 1.9 2.4
2017-Mar-18 13:00N 58°00' E 018°00'0 0.0 240 / 4991.3 2.4 2.2 2.4
2017-Mar-18 12:00N 58°00' E 018°00'0 0.0 230 / 6991.2 2.5 2.1 2.4
2017-Mar-18 11:00N 58°00' E 018°00'0 0.0 220 / 10991.0 2.5 1.7 2.4
2017-Mar-18 10:00N 58°00' E 018°00'0 0.0 220 / 12991.1 2.5 1.4 2.4
2017-Mar-18 09:00N 58°00' E 018°00'7 6.8 230 / 14990.9 2.4 1.3 2.3
2017-Mar-18 08:00N 58°06' E 017°54'7 6.8 230 / 12990.7 3.1 1.8 2.0
2017-Mar-18 07:00N 58°00' E 018°00'6 6.0 230 / 16992.0 3.3 1.8 2.3
2017-Mar-18 06:00N 57°54' E 018°00'7 6.8 250 / 16992.1 2.6 1.2 2.4
2017-Mar-18 05:00N 57°48' E 017°54'7 6.8 250 / 14992.2 2.6 1.3 2.2
2017-Mar-18 04:00N 57°54' E 017°48'7 6.8 250 / 17992.3 2.7 1.3 2.4
2017-Mar-18 03:00N 58°00' E 017°42'6 6.0 260 / 17992.5 2.9 1.2 2.1
2017-Mar-18 02:00N 57°54' E 017°42'3 3.2 240 / 19992.6 3.5 1.5 2.1
2017-Mar-18 01:00N 57°54' E 017°48'7 6.8 240 / 21992.8 3.2 1.2 2.3
2017-Mar-18 00:00N 58°00' E 017°54'3 3.2 240 / 21992.6 3.2 1.4 2.2
2017-Mar-17 23:00N 58°00' E 018°00'6 6.0 230 / 21992.8 3.2 1.5 2.3
2017-Mar-17 22:00N 58°06' E 018°00'7 6.8 230 / 21993.6 3.2 1.1 2.3
2017-Mar-17 21:00N 58°12' E 017°54'1212.4 240 / 25993.0 3.5 1.3 2.2
2017-Mar-17 20:00N 58°24' E 017°48'0 0.0 230 / 19993.2 3.8 0.8 2.1
2017-Mar-17 19:00N 58°24' E 017°48'20 9.9 240 / 19993.3 3.9 0.5 2.0
2017-Mar-17 17:00N 58°36' E 018°18'7 6.8 240 / 23992.2 4.3 0.6 2.2
2017-Mar-17 16:00N 58°42' E 018°24'0 0.0 230 / 25992.3 4.1 0.5 1.9
2017-Mar-17 15:00N 58°42' E 018°24'0 0.0 230 / 21992.3 4.0 0.6 2.0
2017-Mar-17 14:00N 58°42' E 018°24'7 6.8 240 / 23993.0 4.2 0.7 2.0
2017-Mar-17 13:00N 58°36' E 018°18'0 0.0 250 / 21993.5 4.1 0.7 1.9
2017-Mar-17 12:00N 58°36' E 018°18'0 0.0 240 / 21993.8 3.9 1.1 1.9
2017-Mar-17 11:00N 58°36' E 018°18'0 0.0 240 / 21994.1 3.6 1.3 2.0
2017-Mar-17 10:00N 58°36' E 018°18'0 0.0 250 / 21994.9 3.4 1.4 2.0
2017-Mar-17 09:00N 58°36' E 018°18'0 0.0 260 / 23994.9 3.6 1.6 1.9
2017-Mar-17 08:00N 58°36' E 018°18'0 0.0 250 / 21995.1 3.7 2.2 2.0
2017-Mar-17 07:00N 58°36' E 018°18'0 0.0 250 / 25995.3 4.3 3.0 2.0
2017-Mar-17 05:00N 58°36' E 018°18'0 0.0 210 / 29995.5 4.5 3.8 2.0
2017-Mar-17 04:00N 58°36' E 018°18'7 6.8 210 / 29996.6 4.5 3.9 1.9
2017-Mar-17 03:00N 58°42' E 018°24'0 0.0 210 / 31998.4 4.2 3.8 1.9
2017-Mar-17 02:00N 58°42' E 018°24'7 6.8 200 / 31999.8 4.0 3.8 1.9
2017-Mar-17 01:00N 58°36' E 018°30'0 0.0 200 / 311001.5 4.2 3.7 1.9
2017-Mar-17 00:00N 58°36' E 018°30'7 6.8 200 / 311003.0 5.0 4.3 1.9
2017-Mar-16 23:00N 58°42' E 018°24'0 0.0 210 / 311004.6 5.1 3.4 1.8
2017-Mar-16 22:00N 58°42' E 018°24'0 0.0 210 / 271006.2 4.2 2.7 1.8
2017-Mar-16 21:00N 58°42' E 018°24'3 3.1 210 / 271007.4 4.5 2.4 1.9
2017-Mar-16 20:00N 58°42' E 018°30'1515.2 190 / 291008.4 3.8 2.2 1.7
2017-Mar-16 19:00N 58°54' E 018°48'1111.1 200 / 271009.8 3.3 1.0 2.3
2017-Mar-16 18:00N 59°00' E 019°06'1111.0 210 / 211010.9 3.5 0.5 1.7
2017-Mar-16 17:00N 59°06' E 019°24'1111.0 220 / 211011.9 3.4-0.4 1.6
2017-Mar-16 16:00N 59°12' E 019°42'1515.1 240 / 191012.6 3.4-0.8 1.7
2017-Mar-16 15:00N 59°24' E 020°00'9 9.2 230 / 161013.0 3.0-0.1 1.8
2017-Mar-16 14:00N 59°24' E 020°18'1110.9 250 / 161013.5 3.3-0.2 2.1
2017-Mar-16 13:00N 59°30' E 020°36'1212.4 270 / 161014.0 2.8 0.1 1.8
2017-Mar-16 12:00N 59°42' E 020°30'1212.1 280 / 141013.6 2.5-0.3 1.6
2017-Mar-16 11:00N 59°42' E 020°06'7 6.7 300 / 121013.5 3.0-0.6 1.3
2017-Mar-16 10:00N 59°48' E 020°00'9 9.1 300 / 161012.8 2.3-0.9 1.3
2017-Mar-16 09:00N 59°48' E 019°42'7 6.7 300 / 161013.0 3.2-0.6 1.2
2017-Mar-16 08:00N 59°54' E 019°36'6 6.0 300 / 191012.5 2.0-1.4 1.2
2017-Mar-16 07:00N 60°00' E 019°36'   300 / 211012.2 2.0-1.6 1.1

Dump ship's entire track history